Terminal Aerodrome Forecast
Issued by NWS

Home | Current Version | Previous Version | Text Only | Print | Product List | Glossary On
Versions: 1 2 3 4 5 6 7 8 9 10 11 12 13 14 15 16 17 18 19 20 21 22 23 24 25 26 27 28 29
350
FTUS41 KCAR 101200 AAA
TAFFVE
TAF AMD
KFVE 101200Z 1012/1112 23005KT P6SM FEW005 SCT035
      TEMPO 1012/1013 1SM BR BKN004
     FM101500 22005KT P6SM BKN025
     FM101800 22005KT P6SM OVC015
     FM110000 VRB03KT P6SM VCSH OVC009
     FM110600 32004KT P6SM BKN015
     FM111000 32006KT P6SM BKN025=

USA.gov is the U.S. government's official web portal to all federal, state and local government web resources and services.